createdAt,value
2022-09-28T00:01:23.331Z,99416.84
2022-09-28T00:03:54.874Z,99417.06
2022-09-28T00:06:27.580Z,99420.34
2022-09-28T00:08:55.530Z,99414.69
2022-09-28T00:11:26.930Z,99421.25
2022-09-28T00:13:58.095Z,99422.19
2022-09-28T00:16:29.557Z,99421.13
2022-09-28T00:18:59.438Z,99425.81
2022-09-28T00:21:31.040Z,99418.69
2022-09-28T00:24:13.008Z,99412.59
2022-09-28T00:26:42.515Z,99404.09
2022-09-28T00:29:29.073Z,99397.22
2022-09-28T00:32:02.684Z,99403.19
2022-09-28T00:34:37.339Z,99405.22
2022-09-28T00:37:09.178Z,99400.69
2022-09-28T00:39:38.835Z,99405.81
2022-09-28T00:42:16.719Z,99409.53
2022-09-28T00:44:56.640Z,99408.91
2022-09-28T00:47:38.309Z,99417.75
2022-09-28T00:50:09.996Z,99410.06
2022-09-28T00:52:53.460Z,99411.06
2022-09-28T00:55:31.285Z,99407.06
2022-09-28T00:58:04.125Z,99403.72
2022-09-28T01:00:32.671Z,99407.66
2022-09-28T01:03:01.266Z,99396.88
2022-09-28T01:05:30.234Z,99393.16
2022-09-28T01:07:58.734Z,99392.09
2022-09-28T01:10:29.415Z,99392.47
2022-09-28T01:12:59.654Z,99399.09
2022-09-28T01:15:30.291Z,99395.59
2022-09-28T01:18:24.200Z,99391.19
2022-09-28T01:21:01.400Z,99387.66
2022-09-28T01:23:45.489Z,99389.78
2022-09-28T01:26:32.211Z,99394.34
2022-09-28T01:29:19.900Z,99394.91
2022-09-28T01:31:56.600Z,99400.97
2022-09-28T01:34:31.835Z,99395.75
2022-09-28T01:37:02.030Z,99405.31
2022-09-28T01:39:37.018Z,99395.19
2022-09-28T01:42:10.875Z,99396.22
2022-09-28T01:44:42.980Z,99400.78
2022-09-28T01:47:15.740Z,99399.72
2022-09-28T01:49:54.378Z,99409.69
2022-09-28T01:52:35.260Z,99404.03
2022-09-28T01:55:15.933Z,99402.69
2022-09-28T01:57:58.619Z,99410.09
2022-09-28T02:00:28.186Z,99415.88
2022-09-28T02:03:05.979Z,99417.09
2022-09-28T02:05:49.982Z,99425.56
2022-09-28T02:08:29.939Z,99419.06
2022-09-28T02:11:11.661Z,99423.78
2022-09-28T02:13:44.257Z,99419.44
2022-09-28T02:16:22.591Z,99418.41
2022-09-28T02:23:23.743Z,99414.97
2022-09-28T02:26:02.527Z,99398.00
2022-09-28T02:28:31.311Z,99397.81
2022-09-28T02:30:59.580Z,99386.22
2022-09-28T02:33:40.198Z,99388.63
2022-09-28T02:36:08.720Z,99385.94
2022-09-28T02:38:39.560Z,99376.59
2022-09-28T02:41:07.674Z,99380.75
2022-09-28T02:43:50.994Z,99372.03
2022-09-28T02:46:36.133Z,99371.94
2022-09-28T02:49:32.283Z,99366.53
2022-09-28T02:52:26.425Z,99370.47
2022-09-28T02:55:14.207Z,99360.91
2022-09-28T02:58:07.335Z,99360.06
2022-09-28T03:00:45.909Z,99370.47
2022-09-28T03:03:33.775Z,99366.22
2022-09-28T03:06:07.883Z,99375.56
2022-09-28T03:09:08.927Z,99375.13
2022-09-28T03:11:46.925Z,99378.91
2022-09-28T03:14:16.726Z,99378.53
2022-09-28T03:16:52.126Z,99379.56
2022-09-28T03:19:27.139Z,99375.28
2022-09-28T03:21:55.980Z,99380.66
2022-09-28T03:24:24.102Z,99378.75
2022-09-28T03:26:52.497Z,99380.41
2022-09-28T03:29:21.086Z,99393.84
2022-09-28T03:31:54.551Z,99391.38
2022-09-28T03:34:22.924Z,99387.94
2022-09-28T03:36:51.095Z,99395.91
2022-09-28T03:39:19.484Z,99391.84
2022-09-28T03:41:47.625Z,99396.66
2022-09-28T03:44:17.505Z,99394.97
2022-09-28T03:46:47.425Z,99393.97
2022-09-28T03:49:15.472Z,99398.78
2022-09-28T03:51:43.664Z,99395.44
2022-09-28T03:54:11.786Z,99391.34
2022-09-28T03:56:41.150Z,99385.75
2022-09-28T03:59:09.392Z,99385.50
2022-09-28T04:01:38.270Z,99383.38
2022-09-28T04:04:06.474Z,99376.41
2022-09-28T04:06:34.674Z,99374.81
2022-09-28T04:09:02.836Z,99371.50
2022-09-28T04:11:42.996Z,99372.59
2022-09-28T04:14:16.188Z,99364.34
2022-09-28T04:16:44.640Z,99374.28
2022-09-28T04:19:16.304Z,99369.06
2022-09-28T04:22:01.100Z,99367.13
2022-09-28T04:24:29.225Z,99370.31
2022-09-28T04:27:17.863Z,99364.63
2022-09-28T04:29:46.180Z,99372.06
2022-09-28T04:32:15.580Z,99365.84
2022-09-28T04:34:44.460Z,99361.94
2022-09-28T04:37:13.299Z,99356.56
2022-09-28T04:39:44.020Z,99360.91
2022-09-28T04:42:18.142Z,99360.66
2022-09-28T04:44:47.061Z,99372.97
2022-09-28T04:47:15.259Z,99380.88
2022-09-28T18:14:40.894Z,99141.50
2022-09-28T18:17:09.521Z,99144.59
2022-09-28T18:19:37.693Z,99142.69
2022-09-28T18:22:06.005Z,99139.97
2022-09-28T18:24:34.231Z,99148.31
2022-09-28T18:27:02.634Z,99153.22
2022-09-28T18:29:33.351Z,99154.22
2022-09-28T18:32:06.129Z,99147.75
2022-09-28T18:34:39.050Z,99147.31
2022-09-28T18:37:07.539Z,99148.75
2022-09-28T18:39:36.770Z,99158.97
2022-09-28T18:42:05.059Z,99151.78
2022-09-28T18:44:34.220Z,99150.75
2022-09-28T18:47:02.750Z,99158.41
2022-09-28T18:49:33.911Z,99159.69
2022-09-28T18:52:06.165Z,99152.56
2022-09-28T18:54:34.210Z,99155.03
2022-09-28T18:57:02.576Z,99150.91
2022-09-28T18:59:30.657Z,99155.13
2022-09-28T19:02:01.754Z,99158.00
2022-09-28T19:04:30.077Z,99154.88
2022-09-28T19:06:58.351Z,99156.16
2022-09-28T19:09:26.861Z,99156.59
2022-09-28T19:11:55.295Z,99158.47
2022-09-28T19:14:23.418Z,99160.41
2022-09-28T19:16:51.591Z,99161.03
2022-09-28T19:19:21.111Z,99167.50
2022-09-28T19:21:49.416Z,99161.69
2022-09-28T19:24:19.211Z,99167.09
2022-09-28T19:26:47.545Z,99168.97
2022-09-28T19:29:16.384Z,99157.50
2022-09-28T19:31:44.576Z,99158.78
2022-09-28T19:34:14.251Z,99159.13
2022-09-28T19:36:42.951Z,99160.19
2022-09-28T19:39:14.976Z,99168.56
2022-09-28T19:41:49.740Z,99160.91
2022-09-28T19:44:25.465Z,99159.84
2022-09-28T19:46:56.694Z,99166.94
2022-09-28T19:49:26.418Z,99155.88
2022-09-28T19:52:12.854Z,99147.97
2022-09-28T19:54:52.448Z,99146.97
2022-09-28T19:57:20.701Z,99147.16
2022-09-28T19:59:52.546Z,99149.09
2022-09-28T20:02:21.638Z,99139.97
2022-09-28T20:04:49.852Z,99142.53
2022-09-28T20:07:18.026Z,99137.53
2022-09-28T20:09:46.229Z,99134.22
2022-09-28T20:12:14.385Z,99131.53
2022-09-28T20:14:42.585Z,99143.66
2022-09-28T20:17:10.733Z,99148.41
2022-09-28T20:19:38.855Z,99153.84
2022-09-28T20:22:07.355Z,99154.66
2022-09-28T20:24:35.464Z,99153.00
2022-09-28T20:27:03.825Z,99154.25
2022-09-28T20:29:33.753Z,99140.31
2022-09-28T20:32:04.364Z,99137.66
2022-09-28T20:34:34.295Z,99130.00
2022-09-28T20:37:02.370Z,99120.25
2022-09-28T20:39:30.600Z,99125.00
2022-09-28T20:41:59.237Z,99136.06
2022-09-28T20:44:27.409Z,99146.88
2022-09-28T20:46:56.559Z,99148.72
2022-09-28T20:49:24.829Z,99143.06
2022-09-28T20:51:52.989Z,99137.06
2022-09-28T20:54:21.881Z,99148.72
2022-09-28T20:56:49.970Z,99154.34
2022-09-28T20:59:18.313Z,99144.53
2022-09-28T21:01:46.554Z,99156.22
2022-09-28T21:04:14.698Z,99145.81
2022-09-28T21:06:43.036Z,99145.19
2022-09-28T21:09:12.616Z,99148.94
2022-09-28T21:11:41.895Z,99152.69
2022-09-28T21:14:10.591Z,99157.28
2022-09-28T21:16:39.437Z,99152.06
2022-09-28T21:19:07.608Z,99160.81
2022-09-28T21:21:35.765Z,99174.34
2022-09-28T21:24:04.369Z,99162.69
2022-09-28T21:26:33.095Z,99158.97
2022-09-28T21:29:06.846Z,99167.50
2022-09-28T21:31:46.219Z,99158.75
2022-09-28T21:34:21.163Z,99156.06
2022-09-28T21:36:51.562Z,99162.94
2022-09-28T21:39:20.454Z,99170.84
2022-09-28T21:41:48.511Z,99158.78
2022-09-28T21:44:16.664Z,99160.03
2022-09-28T21:46:44.925Z,99158.59
2022-09-28T21:49:14.537Z,99161.72
2022-09-28T21:51:42.741Z,99160.69
2022-09-28T21:54:12.239Z,99153.63
2022-09-28T21:56:40.310Z,99157.34
2022-09-28T21:59:08.300Z,99160.28
2022-09-28T22:01:36.371Z,99163.81
2022-09-28T22:04:04.615Z,99183.38
2022-09-28T22:06:32.756Z,99186.69
2022-09-28T22:09:00.846Z,99186.06
2022-09-28T22:11:29.540Z,99183.97
2022-09-28T22:14:00.000Z,99176.25
2022-09-28T22:16:30.790Z,99180.00
2022-09-28T22:19:00.145Z,99182.06
2022-09-28T22:21:33.668Z,99183.53
2022-09-28T22:24:04.226Z,99184.97
2022-09-28T22:26:33.931Z,99180.63
2022-09-28T22:29:08.060Z,99183.31
2022-09-28T22:31:40.999Z,99186.84
2022-09-28T22:34:10.224Z,99192.47
2022-09-28T22:36:38.235Z,99190.19
2022-09-28T22:39:06.410Z,99191.03
2022-09-28T22:41:34.591Z,99189.56
2022-09-28T22:44:02.400Z,99182.72
2022-09-28T22:46:32.377Z,99182.06
2022-09-28T22:49:00.383Z,99176.91
2022-09-28T22:51:29.762Z,99168.78
2022-09-28T22:53:58.361Z,99155.66
2022-09-28T22:56:26.261Z,99159.00
2022-09-28T22:58:54.401Z,99160.47
2022-09-28T23:01:25.027Z,99158.41
2022-09-28T23:03:55.198Z,99164.44
2022-09-28T23:06:26.263Z,99158.63
2022-09-28T23:08:54.374Z,99158.22
2022-09-28T23:11:22.778Z,99157.81
2022-09-28T23:13:52.434Z,99168.41
2022-09-28T23:16:23.764Z,99164.25
2022-09-28T23:18:52.774Z,99161.78
2022-09-28T23:21:23.663Z,99160.06
2022-09-28T23:23:58.145Z,99159.06
2022-09-28T23:26:29.375Z,99155.94
2022-09-28T23:28:57.624Z,99159.25
2022-09-28T23:31:28.867Z,99159.47
2022-09-28T23:34:04.811Z,99164.44
2022-09-28T23:36:34.239Z,99163.41
2022-09-28T23:39:03.528Z,99171.94
2022-09-28T23:41:31.661Z,99174.22
2022-09-28T23:43:59.774Z,99171.28
2022-09-28T23:46:27.990Z,99174.44
2022-09-28T23:48:56.064Z,99168.59
2022-09-28T23:51:24.179Z,99165.03
2022-09-28T23:53:52.305Z,99179.94
2022-09-28T23:56:20.467Z,99170.59
2022-09-28T23:58:48.595Z,99174.78
